createdAt,value
2023-01-25T00:00:19.434Z,101218.94
2023-01-25T00:02:45.837Z,101218.22
2023-01-25T00:05:12.311Z,101215.53
2023-01-25T00:07:38.704Z,101208.53
2023-01-25T00:10:05.578Z,101212.94
2023-01-25T00:12:32.017Z,101206.88
2023-01-25T00:14:58.436Z,101210.38
2023-01-25T00:17:24.857Z,101204.09
2023-01-25T00:19:51.309Z,101202.38
2023-01-25T00:22:17.747Z,101211.13
2023-01-25T00:24:44.129Z,101203.31
2023-01-25T00:27:10.474Z,101203.13
2023-01-25T00:30:33.337Z,101204.09
2023-01-25T00:33:17.808Z,101205.97
2023-01-25T00:35:44.962Z,101199.00
2023-01-25T00:38:29.566Z,101198.91
2023-01-25T00:40:57.598Z,101198.94
2023-01-25T00:43:23.960Z,101197.97
2023-01-25T00:45:50.419Z,101191.91
2023-01-25T00:48:16.809Z,101186.47
2023-01-25T00:50:43.505Z,101189.22
2023-01-25T00:53:09.939Z,101182.22
2023-01-25T00:55:36.311Z,101186.38
2023-01-25T00:58:02.709Z,101184.59
2023-01-25T01:00:29.142Z,101173.25
2023-01-25T01:02:55.562Z,101174.97
2023-01-25T01:05:21.967Z,101181.28
2023-01-25T01:07:49.817Z,101173.25
2023-01-25T01:10:19.007Z,101176.81
2023-01-25T01:12:45.420Z,101188.28
2023-01-25T01:15:11.799Z,101180.38
2023-01-25T01:17:38.176Z,101178.59
2023-01-25T01:20:04.924Z,101184.81
2023-01-25T01:22:31.332Z,101170.09
2023-01-25T01:24:57.770Z,101179.31
2023-01-25T01:27:24.132Z,101172.50
2023-01-25T01:29:50.513Z,101171.84
2023-01-25T01:32:17.085Z,101173.50
2023-01-25T01:34:44.430Z,101170.84
2023-01-25T01:37:10.909Z,101168.28
2023-01-25T01:39:37.304Z,101166.16
2023-01-25T01:42:03.902Z,101170.97
2023-01-25T01:44:49.905Z,101167.50
2023-01-25T01:47:31.070Z,101168.34
2023-01-25T01:50:06.328Z,101167.09
2023-01-25T01:52:37.398Z,101165.31
2023-01-25T01:55:14.723Z,101173.34
2023-01-25T01:57:51.628Z,101172.25
2023-01-25T02:02:47.549Z,101171.47
2023-01-25T02:05:42.291Z,101170.66
2023-01-25T02:08:12.564Z,101170.63
2023-01-25T02:10:40.817Z,101165.16
2023-01-25T02:13:07.331Z,101165.44
2023-01-25T02:15:41.795Z,101170.66
2023-01-25T02:18:10.531Z,101164.41
2023-01-25T02:20:45.768Z,101164.31
2023-01-25T02:23:20.390Z,101156.41
2023-01-25T02:25:47.023Z,101159.75
2023-01-25T02:28:27.881Z,101164.25
2023-01-25T02:30:54.365Z,101156.19
2023-01-25T02:33:26.697Z,101156.16
2023-01-25T02:36:29.931Z,101156.31
2023-01-25T02:39:02.682Z,101151.38
2023-01-25T02:41:32.100Z,101157.94
2023-01-25T02:43:59.711Z,101154.44
2023-01-25T02:46:32.857Z,101143.97
2023-01-25T02:49:00.900Z,101149.31
2023-01-25T02:51:30.299Z,101157.19
2023-01-25T02:53:57.077Z,101150.09
2023-01-25T02:56:24.665Z,101157.91
2023-01-25T02:58:51.132Z,101153.47
2023-01-25T03:01:17.829Z,101149.09
2023-01-25T03:03:44.633Z,101146.38
2023-01-25T03:06:11.432Z,101147.31
2023-01-25T03:08:38.077Z,101149.00
2023-01-25T03:11:06.762Z,101147.50
2023-01-25T03:13:34.905Z,101139.56
2023-01-25T03:16:04.566Z,101141.31
2023-01-25T03:18:31.040Z,101142.38
2023-01-25T03:21:04.787Z,101149.22
2023-01-25T03:23:31.176Z,101139.75
2023-01-25T03:26:08.564Z,101140.53
2023-01-25T03:28:35.019Z,101141.47
2023-01-25T03:31:01.747Z,101136.25
2023-01-25T03:33:28.337Z,101129.16
2023-01-25T03:35:55.658Z,101133.69
2023-01-25T03:38:23.002Z,101133.78
2023-01-25T03:40:49.715Z,101135.53
2023-01-25T03:43:16.607Z,101132.28
2023-01-25T03:45:43.129Z,101128.72
2023-01-25T03:48:09.943Z,101121.47
2023-01-25T03:50:36.445Z,101121.31
2023-01-25T03:53:07.205Z,101119.72
2023-01-25T03:55:34.708Z,101118.97
2023-01-25T03:58:01.380Z,101122.44
2023-01-25T04:00:27.786Z,101115.41
2023-01-25T04:02:54.267Z,101113.69
2023-01-25T04:05:20.741Z,101114.63
2023-01-25T04:07:47.230Z,101109.41
2023-01-25T04:10:13.637Z,101112.78
2023-01-25T04:12:39.999Z,101104.94
2023-01-25T04:15:07.551Z,101107.69
2023-01-25T04:17:34.082Z,101101.69
2023-01-25T04:20:00.656Z,101102.72
2023-01-25T04:22:27.055Z,101089.50
2023-01-25T04:24:53.556Z,101099.28
2023-01-25T04:27:19.933Z,101093.97
2023-01-25T04:29:46.594Z,101090.31
2023-01-25T04:32:13.151Z,101094.53
2023-01-25T04:34:39.817Z,101089.19
2023-01-25T04:37:06.218Z,101091.72
2023-01-25T04:39:32.841Z,101085.59
2023-01-25T04:41:59.250Z,101083.91
2023-01-25T04:44:25.833Z,101083.06
2023-01-25T04:46:52.309Z,101076.13
2023-01-25T04:49:18.985Z,101078.91
2023-01-25T04:51:45.462Z,101085.84
2023-01-25T04:54:12.126Z,101083.94
2023-01-25T04:56:38.767Z,101076.88
2023-01-25T04:59:05.334Z,101072.06
2023-01-25T05:01:33.492Z,101068.63
2023-01-25T05:04:00.184Z,101071.13
2023-01-25T05:06:26.618Z,101079.97
2023-01-25T05:08:53.137Z,101070.22
2023-01-25T05:11:19.542Z,101077.19
2023-01-25T05:13:46.103Z,101070.31
2023-01-25T05:16:12.513Z,101062.31
2023-01-25T05:18:48.434Z,101063.22
2023-01-25T05:21:34.515Z,101065.88
2023-01-25T05:24:01.336Z,101063.22
2023-01-25T05:26:46.483Z,101056.78
2023-01-25T05:29:13.066Z,101059.50
2023-01-25T05:31:39.720Z,101057.63
2023-01-25T05:34:06.234Z,101056.81
2023-01-25T05:36:32.723Z,101061.22
2023-01-25T05:38:59.129Z,101054.09
2023-01-25T05:41:25.727Z,101044.56
2023-01-25T05:43:52.105Z,101045.19
2023-01-25T05:46:18.724Z,101048.13
2023-01-25T05:48:48.271Z,101054.47
2023-01-25T05:51:14.905Z,101043.81
2023-01-25T05:53:41.369Z,101042.06
2023-01-25T05:56:08.970Z,101050.78
2023-01-25T05:58:35.369Z,101047.22
2023-01-25T06:01:02.781Z,101047.97
2023-01-25T06:03:29.616Z,101042.59
2023-01-25T06:06:04.585Z,101039.13
2023-01-25T06:08:31.374Z,101044.22
2023-01-25T06:10:58.397Z,101041.66
2023-01-25T06:13:25.113Z,101030.16
2023-01-25T06:15:56.489Z,101033.50
2023-01-25T06:18:24.514Z,101037.06
2023-01-25T06:20:51.548Z,101038.00
2023-01-25T06:23:18.012Z,101035.47
2023-01-25T06:25:44.902Z,101034.69
2023-01-25T06:28:11.312Z,101020.75
2023-01-25T06:30:37.726Z,101025.22
2023-01-25T06:33:04.363Z,101030.44
2023-01-25T06:35:34.810Z,101034.84
2023-01-25T06:38:01.378Z,101024.34
2023-01-25T06:40:28.963Z,101021.88
2023-01-25T06:42:55.503Z,101020.94
2023-01-25T06:45:22.098Z,101023.44
2023-01-25T06:47:50.319Z,101020.00
2023-01-25T06:50:16.816Z,101021.69
2023-01-25T06:52:43.345Z,101026.06
2023-01-25T06:55:13.734Z,101027.03
2023-01-25T06:57:40.145Z,101028.75
2023-01-25T07:00:07.459Z,101020.69
2023-01-25T07:02:34.097Z,101011.06
2023-01-25T07:05:00.546Z,101025.09
2023-01-25T07:07:27.103Z,101026.00
2023-01-25T07:09:53.703Z,101028.81
2023-01-25T07:12:20.500Z,101022.72
2023-01-25T07:14:48.437Z,101031.66
2023-01-25T07:17:15.528Z,101027.31
2023-01-25T07:19:42.571Z,101035.06
2023-01-25T07:22:09.175Z,101027.09
2023-01-25T07:24:35.592Z,101027.91
2023-01-25T07:27:02.217Z,101025.09
2023-01-25T07:29:28.692Z,101025.06
2023-01-25T07:31:55.464Z,101020.63
2023-01-25T07:34:21.984Z,101025.78
2023-01-25T07:36:48.548Z,101024.97
2023-01-25T07:39:14.974Z,101031.03
2023-01-25T07:41:41.494Z,101025.66
2023-01-25T07:44:07.898Z,101025.72
2023-01-25T07:46:34.500Z,101027.41
2023-01-25T07:49:01.032Z,101029.00
2023-01-25T07:51:29.975Z,101035.44
2023-01-25T07:53:59.402Z,101032.19
2023-01-25T07:56:30.040Z,101033.19
2023-01-25T07:58:58.265Z,101030.47
2023-01-25T08:01:26.842Z,101035.97
2023-01-25T08:03:58.376Z,101025.44
2023-01-25T08:06:35.844Z,101029.50
2023-01-25T08:09:08.946Z,101031.22
2023-01-25T08:11:35.685Z,101032.97
2023-01-25T08:14:03.106Z,101028.56
2023-01-25T08:16:31.283Z,101026.69
2023-01-25T08:19:00.028Z,101032.31
2023-01-25T08:21:30.833Z,101026.91
2023-01-25T08:24:01.800Z,101035.56
2023-01-25T08:26:29.125Z,101026.06
2023-01-25T08:28:56.305Z,101026.94
2023-01-25T08:31:25.497Z,101026.00
2023-01-25T08:33:53.677Z,101023.28
2023-01-25T08:36:21.316Z,101024.09
2023-01-25T08:38:48.370Z,101024.03
2023-01-25T08:41:19.363Z,101024.06
2023-01-25T08:43:46.825Z,101019.47
2023-01-25T08:46:15.385Z,101009.72
2023-01-25T08:48:41.843Z,101020.19
2023-01-25T08:51:11.552Z,101009.63
2023-01-25T08:53:38.102Z,101011.16
2023-01-25T08:56:06.972Z,101005.88
2023-01-25T08:58:34.218Z,101002.19
2023-01-25T09:01:05.704Z,101002.13
2023-01-25T09:03:36.170Z,100994.50
2023-01-25T09:06:02.772Z,100989.84
2023-01-25T09:08:29.294Z,100986.28
2023-01-25T09:10:55.674Z,100996.53
2023-01-25T09:13:22.256Z,100992.19
2023-01-25T09:15:48.694Z,100980.94
2023-01-25T09:18:15.451Z,100991.31
2023-01-25T09:20:42.170Z,100990.75
2023-01-25T09:23:09.826Z,100980.88
2023-01-25T09:25:36.371Z,100980.75
2023-01-25T09:28:11.067Z,100977.28
2023-01-25T09:30:47.279Z,100983.03
2023-01-25T09:33:16.784Z,100985.44
2023-01-25T09:35:48.548Z,100974.50
2023-01-25T09:38:15.329Z,100972.63
2023-01-25T09:41:03.771Z,100968.94
2023-01-25T09:43:42.500Z,100970.59
2023-01-25T09:46:22.795Z,100968.72
2023-01-25T09:49:07.648Z,100973.31
2023-01-25T09:51:56.523Z,100966.47
2023-01-25T09:54:23.910Z,100960.97
2023-01-25T09:56:51.818Z,100957.56
2023-01-25T09:59:23.368Z,100959.56
2023-01-25T10:02:15.195Z,100953.03
2023-01-25T10:04:44.662Z,100948.53
2023-01-25T10:07:21.561Z,100945.88
2023-01-25T10:09:52.418Z,100946.72
2023-01-25T10:12:21.995Z,100939.88
2023-01-25T10:14:49.143Z,100945.72
2023-01-25T10:17:26.070Z,100942.91
2023-01-25T10:19:52.509Z,100941.13
2023-01-25T10:22:29.910Z,100937.34
2023-01-25T10:25:36.280Z,100926.06
2023-01-25T10:28:30.607Z,100929.44
2023-01-25T10:31:04.724Z,100925.09
2023-01-25T10:33:37.549Z,100919.66
2023-01-25T10:36:05.309Z,100924.53
2023-01-25T10:38:39.541Z,100919.19
2023-01-25T10:41:09.899Z,100903.28
2023-01-25T10:43:36.432Z,100904.34
2023-01-25T10:46:03.112Z,100902.91
2023-01-25T10:48:34.206Z,100903.19
2023-01-25T10:51:00.854Z,100897.28
2023-01-25T10:53:33.259Z,100894.56
2023-01-25T10:56:00.171Z,100886.09
2023-01-25T10:58:32.108Z,100894.31
2023-01-25T11:00:59.758Z,100887.91
2023-01-25T11:03:34.909Z,100879.72
2023-01-25T11:06:02.311Z,100878.41
2023-01-25T11:08:41.349Z,100870.28
2023-01-25T11:11:31.375Z,100865.63
2023-01-25T11:13:58.016Z,100866.03
2023-01-25T11:16:40.727Z,100851.00
2023-01-25T11:19:32.884Z,100856.25
2023-01-25T11:22:01.281Z,100851.84
2023-01-25T11:24:30.150Z,100848.91
2023-01-25T11:27:12.073Z,100846.69
2023-01-25T11:29:38.456Z,100838.34
2023-01-25T11:32:15.800Z,100836.13
2023-01-25T11:34:42.239Z,100838.63
2023-01-25T11:37:30.970Z,100834.94
2023-01-25T11:40:22.755Z,100839.94
2023-01-25T11:43:07.128Z,100838.66
2023-01-25T11:45:45.337Z,100822.88
2023-01-25T11:48:26.877Z,100818.50
2023-01-25T11:50:56.163Z,100828.09
2023-01-25T11:53:40.995Z,100815.16
2023-01-25T11:56:36.522Z,100812.34
2023-01-25T11:59:30.389Z,100808.31
2023-01-25T12:02:08.568Z,100800.19
2023-01-25T12:05:21.614Z,100794.25
2023-01-25T12:08:00.757Z,100787.41
2023-01-25T12:10:40.482Z,100793.25
2023-01-25T12:13:13.088Z,100776.47
2023-01-25T12:15:58.141Z,100774.22
2023-01-25T12:18:24.492Z,100768.88
2023-01-25T12:20:56.906Z,100753.38
2023-01-25T12:23:34.680Z,100751.63
2023-01-25T12:26:21.163Z,100744.53
2023-01-25T12:28:59.372Z,100729.38
2023-01-25T12:31:42.082Z,100721.94
2023-01-25T12:34:25.359Z,100714.75
2023-01-25T12:36:51.909Z,100712.84
2023-01-25T12:39:35.334Z,100707.78
2023-01-25T12:42:16.259Z,100700.63
2023-01-25T12:44:47.790Z,100704.03
2023-01-25T12:47:32.999Z,100697.00
2023-01-25T12:50:22.553Z,100695.38
2023-01-25T12:52:58.229Z,100690.00
2023-01-25T12:55:25.063Z,100678.38
2023-01-25T12:57:54.609Z,100671.06
2023-01-25T13:00:21.147Z,100671.06
2023-01-25T13:03:26.875Z,100666.09
2023-01-25T13:06:05.694Z,100651.91
2023-01-25T13:08:59.344Z,100642.19
2023-01-25T13:11:30.770Z,100632.28
2023-01-25T13:14:15.681Z,100627.44
2023-01-25T13:17:09.276Z,100630.19
2023-01-25T13:19:36.788Z,100620.44
2023-01-25T13:22:04.350Z,100621.34
2023-01-25T13:24:32.910Z,100613.56
2023-01-25T13:27:05.658Z,100615.84
2023-01-25T13:29:46.057Z,100619.78
2023-01-25T13:32:24.758Z,100617.84
2023-01-25T13:35:00.928Z,100612.00
2023-01-25T13:37:34.768Z,100603.66
2023-01-25T13:40:10.127Z,100599.22
2023-01-25T13:42:39.499Z,100591.34
2023-01-25T13:45:20.692Z,100591.44
2023-01-25T13:48:14.314Z,100579.75
2023-01-25T13:50:48.707Z,100584.84
2023-01-25T13:53:15.260Z,100577.78
2023-01-25T13:55:43.889Z,100578.97
2023-01-25T13:58:10.438Z,100572.16
2023-01-25T14:00:37.278Z,100572.06
2023-01-25T14:03:06.454Z,100568.59
2023-01-25T14:05:33.414Z,100561.41
2023-01-25T14:07:59.907Z,100560.59
2023-01-25T14:10:28.188Z,100547.31
2023-01-25T14:12:59.947Z,100541.38
2023-01-25T14:15:30.036Z,100547.66
2023-01-25T14:18:12.238Z,100549.09
2023-01-25T14:20:39.121Z,100554.69
2023-01-25T14:23:05.486Z,100547.16
2023-01-25T14:25:33.455Z,100549.41
2023-01-25T14:28:02.227Z,100551.25
2023-01-25T14:30:36.061Z,100540.91
2023-01-25T14:33:17.128Z,100541.63
2023-01-25T14:36:11.519Z,100547.66
2023-01-25T14:38:38.062Z,100542.19
2023-01-25T14:41:25.954Z,100535.19
2023-01-25T14:43:54.931Z,100527.84
2023-01-25T14:46:26.082Z,100521.16
2023-01-25T14:49:13.068Z,100523.00
2023-01-25T14:51:46.846Z,100522.47
2023-01-25T14:54:25.876Z,100514.44
2023-01-25T14:57:02.131Z,100513.66
2023-01-25T14:59:37.631Z,100514.63
2023-01-25T15:02:59.776Z,100511.09
2023-01-25T15:05:31.720Z,100518.25
2023-01-25T15:08:15.603Z,100523.59
2023-01-25T15:11:18.649Z,100518.41
2023-01-25T15:13:45.237Z,100513.69
2023-01-25T15:16:11.898Z,100504.28
2023-01-25T15:18:55.004Z,100506.59
2023-01-25T15:21:31.966Z,100500.31
2023-01-25T15:24:04.863Z,100503.34
2023-01-25T15:26:33.597Z,100493.94
2023-01-25T15:29:13.908Z,100493.34
2023-01-25T15:31:42.598Z,100496.22
2023-01-25T15:34:21.267Z,100486.81
2023-01-25T15:36:48.039Z,100484.19
2023-01-25T15:39:17.312Z,100489.19
2023-01-25T15:41:44.693Z,100487.94
2023-01-25T15:44:12.006Z,100493.25
2023-01-25T15:46:42.956Z,100495.88
2023-01-25T15:49:16.940Z,100487.13
2023-01-25T15:51:43.485Z,100487.06
2023-01-25T15:54:10.189Z,100480.81
2023-01-25T15:56:37.813Z,100474.50
2023-01-25T15:59:13.743Z,100477.97
2023-01-25T16:01:40.271Z,100480.66
2023-01-25T16:04:06.721Z,100468.44
2023-01-25T16:06:46.071Z,100463.06
2023-01-25T16:09:20.527Z,100459.16
2023-01-25T16:11:50.932Z,100459.47
2023-01-25T16:14:17.833Z,100462.97
2023-01-25T16:16:47.499Z,100460.22
2023-01-25T16:19:19.085Z,100456.16
2023-01-25T16:21:45.671Z,100464.78
2023-01-25T16:24:12.770Z,100459.44
2023-01-25T16:26:45.088Z,100461.19
2023-01-25T16:29:12.307Z,100461.97
2023-01-25T16:31:38.854Z,100462.81
2023-01-25T16:34:05.435Z,100464.38
2023-01-25T16:36:34.046Z,100466.78
2023-01-25T16:39:19.455Z,100459.06
2023-01-25T16:41:46.278Z,100463.38
2023-01-25T16:44:13.048Z,100464.06
2023-01-25T16:46:39.741Z,100458.59
2023-01-25T16:49:09.642Z,100468.28
2023-01-25T16:51:37.419Z,100465.75
2023-01-25T16:54:04.101Z,100460.28
2023-01-25T16:56:32.995Z,100457.63
2023-01-25T16:59:05.445Z,100461.16
2023-01-25T17:01:32.429Z,100457.84
2023-01-25T17:03:58.988Z,100458.56
2023-01-25T17:06:28.489Z,100454.28
2023-01-25T17:08:56.451Z,100449.78
2023-01-25T17:11:23.408Z,100452.28
2023-01-25T17:13:51.912Z,100448.69
2023-01-25T17:16:19.944Z,100441.78
2023-01-25T17:18:47.000Z,100437.44
2023-01-25T17:21:19.266Z,100440.00
2023-01-25T17:23:47.356Z,100436.38
2023-01-25T17:26:16.196Z,100435.69
2023-01-25T17:28:43.468Z,100429.34
2023-01-25T17:31:18.862Z,100429.44
2023-01-25T17:33:46.085Z,100434.72
2023-01-25T17:36:15.034Z,100420.53
2023-01-25T17:38:42.725Z,100419.53
2023-01-25T17:41:11.650Z,100421.38
2023-01-25T17:43:38.504Z,100411.91
2023-01-25T17:46:20.948Z,100408.88
2023-01-25T17:48:48.160Z,100406.59
2023-01-25T17:51:15.151Z,100409.19
2023-01-25T17:53:41.688Z,100404.50
2023-01-25T17:56:10.121Z,100411.56
2023-01-25T17:58:37.630Z,100413.66
2023-01-25T18:01:15.478Z,100418.03
2023-01-25T18:03:43.742Z,100408.41
2023-01-25T18:06:12.370Z,100408.16
2023-01-25T18:08:40.793Z,100397.75
2023-01-25T18:11:15.322Z,100399.31
2023-01-25T18:13:45.001Z,100395.88
2023-01-25T18:16:12.083Z,100402.72
2023-01-25T18:18:39.875Z,100386.88
2023-01-25T18:21:11.964Z,100388.34
2023-01-25T18:23:39.718Z,100395.94
2023-01-25T18:26:09.051Z,100392.72
2023-01-25T18:28:36.348Z,100392.28
2023-01-25T18:31:05.710Z,100389.66
2023-01-25T18:33:33.304Z,100381.56
2023-01-25T18:36:02.769Z,100378.69
2023-01-25T18:38:30.761Z,100383.34
2023-01-25T18:40:57.483Z,100374.63
2023-01-25T18:43:24.234Z,100376.44
2023-01-25T18:45:58.574Z,100369.56
2023-01-25T18:48:30.431Z,100366.91
2023-01-25T18:51:05.672Z,100367.69
2023-01-25T18:53:33.471Z,100373.16
2023-01-25T18:56:16.735Z,100372.88
2023-01-25T18:58:43.885Z,100379.16
2023-01-25T19:01:19.827Z,100374.44
2023-01-25T19:03:47.847Z,100373.63
2023-01-25T19:06:15.400Z,100363.38
2023-01-25T19:08:44.398Z,100370.09
2023-01-25T19:11:14.044Z,100360.28
2023-01-25T19:13:42.008Z,100362.78
2023-01-25T19:16:20.330Z,100355.94
2023-01-25T19:18:49.988Z,100347.94
2023-01-25T19:21:19.296Z,100344.53
2023-01-25T19:23:46.225Z,100336.59
2023-01-25T19:26:15.818Z,100350.25
2023-01-25T19:28:43.063Z,100337.50
2023-01-25T19:31:12.497Z,100343.72
2023-01-25T19:33:39.851Z,100340.22
2023-01-25T19:36:13.100Z,100346.97
2023-01-25T19:38:40.267Z,100338.28
2023-01-25T19:41:09.847Z,100331.50
2023-01-25T19:43:36.972Z,100328.09
2023-01-25T19:46:24.549Z,100335.84
2023-01-25T19:48:52.393Z,100333.81
2023-01-25T19:51:21.644Z,100328.88
2023-01-25T19:54:00.195Z,100323.25
2023-01-25T19:56:29.269Z,100321.00
2023-01-25T19:58:56.451Z,100314.75
2023-01-25T20:01:28.956Z,100304.53
2023-01-25T20:04:02.129Z,100298.53
2023-01-25T20:06:30.432Z,100289.47
2023-01-25T20:08:56.892Z,100296.91
2023-01-25T20:11:26.320Z,100292.28
2023-01-25T20:13:55.605Z,100284.69
2023-01-25T20:16:22.852Z,100280.00
2023-01-25T20:18:49.758Z,100280.56
2023-01-25T20:21:22.139Z,100275.44
2023-01-25T20:23:50.639Z,100260.91
2023-01-25T20:26:20.249Z,100253.91
2023-01-25T20:28:51.489Z,100255.38
2023-01-25T20:31:37.670Z,100255.88
2023-01-25T20:34:07.227Z,100254.69
2023-01-25T20:36:35.695Z,100250.00
2023-01-25T20:39:02.547Z,100244.69
2023-01-25T20:41:29.146Z,100233.25
2023-01-25T20:44:00.388Z,100230.59
2023-01-25T20:46:27.774Z,100236.78
2023-01-25T20:48:54.447Z,100227.97
2023-01-25T20:51:21.679Z,100234.66
2023-01-25T20:53:49.956Z,100229.53
2023-01-25T20:56:18.020Z,100231.31
2023-01-25T20:58:50.166Z,100224.41
2023-01-25T21:01:22.561Z,100219.75
2023-01-25T21:03:49.756Z,100222.56
2023-01-25T21:06:17.355Z,100227.81
2023-01-25T21:08:44.457Z,100233.50
2023-01-25T21:11:13.269Z,100238.72
2023-01-25T21:13:40.001Z,100235.03
2023-01-25T21:16:15.958Z,100227.38
2023-01-25T21:18:44.383Z,100224.13
2023-01-25T21:21:19.824Z,100212.06
2023-01-25T21:23:47.887Z,100209.38
2023-01-25T21:26:22.721Z,100208.66
2023-01-25T21:28:50.275Z,100207.78
2023-01-25T21:31:21.631Z,100198.63
2023-01-25T21:33:48.845Z,100204.56
2023-01-25T21:36:17.541Z,100207.34
2023-01-25T21:38:46.429Z,100208.09
2023-01-25T21:41:15.863Z,100206.25
2023-01-25T21:44:01.370Z,100204.94
2023-01-25T21:46:28.589Z,100187.34
2023-01-25T21:49:18.737Z,100178.69
2023-01-25T21:51:49.497Z,100176.84
2023-01-25T21:54:17.816Z,100174.03
2023-01-25T21:56:45.580Z,100181.22
2023-01-25T21:59:12.197Z,100177.72
2023-01-25T22:01:38.875Z,100177.88
2023-01-25T22:04:05.778Z,100160.34
2023-01-25T22:06:33.090Z,100171.59
2023-01-25T22:08:59.770Z,100165.47
2023-01-25T22:11:26.647Z,100162.59
2023-01-25T22:13:53.803Z,100174.38
2023-01-25T22:16:21.408Z,100149.69
2023-01-25T22:18:48.304Z,100157.28
2023-01-25T22:21:20.663Z,100173.34
2023-01-25T22:23:48.077Z,100174.50
2023-01-25T22:26:19.048Z,100168.75
2023-01-25T22:28:47.232Z,100158.19
2023-01-25T22:31:18.972Z,100164.28
2023-01-25T22:33:45.598Z,100159.84
2023-01-25T22:36:14.269Z,100151.75
2023-01-25T22:38:40.785Z,100152.72
2023-01-25T22:41:09.676Z,100142.41
2023-01-25T22:43:36.867Z,100144.44
2023-01-25T22:46:04.495Z,100142.41
2023-01-25T22:48:32.945Z,100138.34
2023-01-25T22:51:04.004Z,100153.97
2023-01-25T22:53:30.928Z,100152.38
2023-01-25T22:56:04.434Z,100149.66
2023-01-25T22:58:31.326Z,100142.81
2023-01-25T23:00:57.899Z,100144.16
2023-01-25T23:03:24.594Z,100151.13
2023-01-25T23:06:00.751Z,100154.47
2023-01-25T23:08:30.114Z,100156.28
2023-01-25T23:11:02.678Z,100151.88
2023-01-25T23:13:29.471Z,100156.28
2023-01-25T23:16:00.256Z,100146.78
2023-01-25T23:18:45.525Z,100150.31
2023-01-25T23:21:11.947Z,100134.56
2023-01-25T23:23:38.636Z,100150.59
2023-01-25T23:26:05.332Z,100145.19
2023-01-25T23:28:31.780Z,100141.53
2023-01-25T23:31:21.346Z,100136.25
2023-01-25T23:33:49.907Z,100133.75
2023-01-25T23:36:22.448Z,100137.16
2023-01-25T23:38:50.188Z,100127.78
2023-01-25T23:41:19.046Z,100114.56
2023-01-25T23:43:45.798Z,100122.78
2023-01-25T23:46:15.741Z,100123.75
2023-01-25T23:48:43.328Z,100118.50
2023-01-25T23:51:11.192Z,100115.88
2023-01-25T23:53:38.934Z,100110.75
2023-01-25T23:56:17.525Z,100111.72
2023-01-25T23:58:44.735Z,100112.28
